Coquitlam, Canada
Current Conditions -  °F | °C
As of 2:32 AM on Tuesday 27 Jan 2015 (Local Time) from CYVR Reporting Station
Overcast Overcast  
Wind Chill: 41°   Ceiling: 4500
Heat Index: 45°   Visibility: 15mi
Dew Point: 45°   Wind: 7mph
Humidity: 100%   Direction: 110°ESE
Pressure: 29.98"   Gusts: NA
Location:  49.27°N, 122.78°W
Report Text: CYVR 271032Z 11006KT 15SM OVC045 07/07 A2998 RMK SC8 SLP153
Loading
Personal Weather Stations






























Interactive Weather Map New forecast layout! Learn more

10-Day Weather Forecast

Advertisements
Track Severe Weather on mobile